Time;durP1;ratioP1;P1;durP2;ratioP2;P2;SDS_P1;SDS_P2;PMS_P1;PMS_P2;Temp;Humidity;BMP_temperature;BMP_pressure;BME280_temperature;BME280_humidity;BME280_pressure;Samples;Min_cycle;Max_cycle;Signal;HPM_P1;HPM_P2
2022/06/11 00:00:31;;;;;;;8.38;5.47;;;29.20;99.90;;;;;;4136149;28;20060;-70
2022/06/11 00:02:36;;;;;;;11.07;7.80;;;29.30;99.90;;;;;;4138789;28;20121;-69
2022/06/11 00:04:42;;;;;;;13.45;8.10;;;29.40;99.90;;;;;;4140659;28;20362;-71
2022/06/11 00:06:54;;;;;;;11.63;7.03;;;29.40;99.90;;;;;;4136506;28;20132;-69
2022/06/11 00:09:02;;;;;;;10.85;7.13;;;29.40;99.90;;;;;;4141408;28;20065;-69
2022/06/11 00:11:08;;;;;;;10.75;5.97;;;29.50;99.90;;;;;;4135911;28;20046;-69
2022/06/11 00:13:15;;;;;;;9.38;5.07;;;29.50;99.90;;;;;;4136410;28;20077;-68
2022/06/11 00:15:21;;;;;;;10.18;5.70;;;29.50;99.90;;;;;;4135797;28;20045;-69
2022/06/11 00:17:27;;;;;;;8.70;5.50;;;29.60;99.90;;;;;;4110070;28;20046;-68
2022/06/11 00:19:32;;;;;;;8.60;4.82;;;29.60;99.90;;;;;;4141154;28;20413;-71
2022/06/11 00:21:41;;;;;;;10.10;4.93;;;29.70;99.90;;;;;;4144274;28;20103;-71
2022/06/11 00:23:48;;;;;;;11.77;4.88;;;29.70;99.90;;;;;;4158142;28;20053;-70
2022/06/11 00:25:53;;;;;;;7.75;4.65;;;29.80;99.90;;;;;;4142718;28;20046;-70
2022/06/11 00:28:00;;;;;;;9.10;4.68;;;29.90;99.60;;;;;;4143951;28;20044;-69
2022/06/11 00:30:11;;;;;;;9.27;4.60;;;30.00;99.20;;;;;;4126852;28;20129;-71
2022/06/11 00:32:16;;;;;;;10.85;5.03;;;30.10;99.10;;;;;;4144502;28;20124;-70
2022/06/11 00:34:22;;;;;;;9.23;4.38;;;30.10;98.90;;;;;;4145163;28;20508;-70
2022/06/11 00:36:30;;;;;;;8.18;4.22;;;30.10;99.00;;;;;;4143321;28;20133;-70
2022/06/11 00:38:35;;;;;;;11.23;5.30;;;30.10;98.80;;;;;;4143095;28;20057;-70
2022/06/11 00:40:42;;;;;;;11.00;4.35;;;30.20;98.80;;;;;;4125974;28;20116;-70
2022/06/11 00:42:47;;;;;;;10.05;4.78;;;30.30;98.90;;;;;;4142951;28;20577;-72
2022/06/11 00:45:17;;;;;;;15.05;4.80;;;30.40;98.90;;;;;;4142340;28;20056;-70
2022/06/11 00:47:29;;;;;;;12.95;4.10;;;30.40;98.70;;;;;;4143296;28;20501;-70
2022/06/11 00:49:41;;;;;;;8.23;4.22;;;30.40;98.70;;;;;;4143540;28;20050;-72
2022/06/11 00:51:57;;;;;;;11.38;4.28;;;30.50;98.50;;;;;;4140372;28;20065;-70
2022/06/11 00:54:05;;;;;;;10.68;4.38;;;30.60;98.50;;;;;;4125375;28;20073;-70
2022/06/11 00:56:24;;;;;;;9.55;4.55;;;30.50;98.20;;;;;;4125552;28;20046;-70
2022/06/11 00:58:37;;;;;;;10.50;4.25;;;30.50;98.10;;;;;;4125029;28;20125;-70
2022/06/11 01:00:48;;;;;;;8.02;4.40;;;30.60;98.10;;;;;;4141951;28;20597;-69
2022/06/11 01:02:54;;;;;;;;;;;30.60;98.20;;;;;;4123188;28;20176;-69
2022/06/11 01:05:02;;;;;;;8.98;4.30;;;30.60;97.90;;;;;;4126044;28;19989;-69
2022/06/11 01:07:24;;;;;;;8.80;4.53;;;30.60;98.00;;;;;;4126708;28;20042;-70
2022/06/11 01:09:45;;;;;;;8.23;3.70;;;30.50;97.30;;;;;;4142348;28;20506;-70
2022/06/11 01:12:18;;;;;;;7.50;3.92;;;30.60;97.10;;;;;;4141456;28;20058;-70
2022/06/11 01:14:41;;;;;;;7.88;4.20;;;30.50;97.20;;;;;;4140867;28;20053;-71
2022/06/11 01:16:56;;;;;;;7.50;4.03;;;30.50;97.10;;;;;;4125246;28;20050;-74
2022/06/11 01:19:23;;;;;;;9.15;3.97;;;30.50;96.90;;;;;;4142557;28;20072;-74
2022/06/11 01:21:42;;;;;;;7.85;3.70;;;30.40;97.10;;;;;;4142123;28;20627;-72
2022/06/11 01:24:09;;;;;;;8.02;3.90;;;30.60;97.40;;;;;;4142723;28;20477;-73
2022/06/11 01:26:29;;;;;;;7.85;4.82;;;30.70;97.30;;;;;;4142560;28;20054;-74
2022/06/11 01:28:42;;;;;;;6.88;4.07;;;30.70;97.20;;;;;;4125510;28;20042;-74
2022/06/11 01:30:55;;;;;;;10.82;4.75;;;30.80;97.10;;;;;;4141478;28;20056;-74
2022/06/11 01:33:10;;;;;;;7.53;4.43;;;30.80;97.30;;;;;;4125738;28;20495;-73
2022/06/11 01:35:20;;;;;;;9.50;4.70;;;30.80;97.10;;;;;;4140875;28;20105;-73
2022/06/11 01:37:47;;;;;;;10.93;4.75;;;30.90;97.00;;;;;;4140518;28;20073;-72
2022/06/11 01:40:01;;;;;;;9.45;4.32;;;31.10;97.30;;;;;;4143548;28;20046;-74
2022/06/11 02:21:03;;;;;;;12.80;4.18;;;31.70;96.10;;;;;;4154774;28;20029;-74
2022/06/11 02:23:30;;;;;;;7.60;4.13;;;31.80;96.10;;;;;;4132873;28;20053;-75
2022/06/11 02:25:36;;;;;;;9.05;4.32;;;31.70;96.10;;;;;;4133358;28;20058;-74
2022/06/11 02:27:43;;;;;;;8.75;4.53;;;31.80;96.20;;;;;;4130853;28;20483;-75
2022/06/11 02:29:49;;;;;;;10.13;4.22;;;31.90;96.30;;;;;;4144671;28;20060;-74
2022/06/11 02:31:57;;;;;;;9.70;3.92;;;31.90;96.20;;;;;;4147035;28;20104;-74
2022/06/11 02:34:04;;;;;;;10.35;4.18;;;31.90;96.00;;;;;;4158718;28;20034;-74
2022/06/11 02:36:27;;;;;;;10.65;4.20;;;31.90;96.00;;;;;;4126488;28;20081;-74
2022/06/11 02:38:33;;;;;;;8.30;4.00;;;32.00;96.00;;;;;;4160387;28;20046;-75
2022/06/11 02:40:43;;;;;;;11.68;4.68;;;32.10;96.00;;;;;;4138338;28;20047;-71
2022/06/11 02:42:50;;;;;;;6.87;3.80;;;32.00;95.00;;;;;;4152214;28;20057;-72
2022/06/11 02:45:00;;;;;;;10.57;4.07;;;32.00;95.70;;;;;;4153283;28;20053;-72
2022/06/11 02:47:07;;;;;;;10.70;4.25;;;32.10;95.90;;;;;;4152923;28;20132;-73
2022/06/11 02:49:21;;;;;;;9.95;4.13;;;32.30;96.00;;;;;;4136799;28;20034;-73
2022/06/11 02:51:39;;;;;;;6.45;4.03;;;32.40;95.70;;;;;;4160452;28;20040;-72
2022/06/11 02:53:49;;;;;;;8.02;4.03;;;32.00;94.70;;;;;;4136786;28;20042;-73
2022/06/11 02:56:07;;;;;;;9.73;3.80;;;31.90;95.00;;;;;;4143208;28;20136;-73
2022/06/11 02:58:13;;;;;;;8.63;3.92;;;32.00;95.10;;;;;;4162251;28;20068;-73
2022/06/11 03:00:36;;;;;;;8.07;3.80;;;32.10;95.60;;;;;;4154898;28;20053;-72
2022/06/11 03:02:59;;;;;;;8.88;3.83;;;32.30;95.30;;;;;;4155916;28;20053;-73
2022/06/11 03:05:11;;;;;;;8.30;3.47;;;32.30;94.80;;;;;;4169676;28;20044;-73
2022/06/11 03:07:18;;;;;;;9.35;3.92;;;32.30;95.00;;;;;;4153184;28;20041;-73
2022/06/11 03:09:31;;;;;;;6.75;3.88;;;32.50;94.90;;;;;;4168954;28;20106;-73
2022/06/11 03:11:37;;;;;;;8.77;3.88;;;32.30;94.30;;;;;;4151072;28;20033;-73
2022/06/11 03:13:45;;;;;;;8.85;3.83;;;32.40;93.90;;;;;;4166743;28;20060;-73
2022/06/11 03:15:52;;;;;;;9.73;3.85;;;32.40;94.30;;;;;;4140279;28;20084;-73
2022/06/11 03:17:59;;;;;;;11.27;4.07;;;32.30;94.10;;;;;;4152407;28;20042;-73
2022/06/11 03:20:10;;;;;;;9.98;4.35;;;32.40;94.80;;;;;;4136144;28;20378;-72
2022/06/11 03:22:24;;;;;;;9.23;4.00;;;32.50;94.50;;;;;;4149393;28;20130;-74
2022/06/11 03:24:31;;;;;;;9.63;3.63;;;32.40;94.30;;;;;;4146206;28;20046;-74
2022/06/11 03:26:44;;;;;;;9.25;3.78;;;32.30;94.30;;;;;;4162762;28;20045;-74
2022/06/11 03:28:51;;;;;;;8.15;3.60;;;32.40;94.60;;;;;;4130185;28;20073;-71
2022/06/11 03:30:58;;;;;;;7.93;3.70;;;32.60;94.30;;;;;;4136572;28;20373;-74
2022/06/11 03:33:06;;;;;;;7.32;3.42;;;32.40;93.90;;;;;;4146235;28;20058;-73
2022/06/11 03:35:14;;;;;;;9.82;4.15;;;32.60;93.40;;;;;;4130237;28;20501;-74
2022/06/11 03:37:20;;;;;;;6.10;3.00;;;32.70;93.00;;;;;;4157695;28;20069;-75
2022/06/11 03:39:26;;;;;;;7.50;3.13;;;32.70;92.20;;;;;;4144851;28;20481;-70
2022/06/11 03:41:31;;;;;;;5.78;3.25;;;32.90;92.40;;;;;;4162517;28;20508;-74
2022/06/11 03:43:36;;;;;;;6.53;3.42;;;32.90;92.70;;;;;;4163214;28;20643;-74
2022/06/11 03:45:43;;;;;;;7.47;3.35;;;32.80;92.50;;;;;;4129447;28;20054;-73
2022/06/11 03:47:48;;;;;;;5.78;3.30;;;32.70;92.10;;;;;;4156118;28;20112;-73
2022/06/11 03:49:54;;;;;;;6.93;3.28;;;32.80;92.20;;;;;;4146297;28;20065;-72
2022/06/11 03:52:00;;;;;;;7.05;3.30;;;33.00;92.50;;;;;;4162273;28;20045;-73
2022/06/11 03:54:07;;;;;;;7.07;3.55;;;33.10;92.80;;;;;;4156087;28;20034;-74
2022/06/11 03:56:15;;;;;;;6.28;3.53;;;33.10;92.50;;;;;;4147954;28;20081;-74
2022/06/11 03:58:22;;;;;;;6.63;3.40;;;33.10;92.20;;;;;;4144872;28;20049;-75
2022/06/11 04:02:46;;;;;;;5.75;3.55;;;33.00;92.70;;;;;;4156521;28;20670;-75
2022/06/11 04:04:51;;;;;;;9.57;3.90;;;33.30;93.00;;;;;;4143098;28;20048;-73
2022/06/11 04:06:57;;;;;;;6.22;3.45;;;33.40;93.00;;;;;;4142771;28;20046;-74
2022/06/11 04:09:03;;;;;;;6.63;3.15;;;33.50;91.70;;;;;;4140401;28;20525;-74
2022/06/11 04:11:10;;;;;;;10.30;3.83;;;33.50;91.50;;;;;;4160690;28;20087;-74
2022/06/11 04:13:17;;;;;;;6.97;3.35;;;33.30;91.40;;;;;;4109712;28;20050;-73
2022/06/11 04:15:22;;;;;;;8.82;3.60;;;33.30;91.90;;;;;;4127676;28;20416;-75
2022/06/11 04:17:30;;;;;;;7.10;3.33;;;33.50;92.30;;;;;;4143250;28;20069;-73
2022/06/11 04:19:39;;;;;;;5.53;3.80;;;33.50;92.30;;;;;;4146821;28;20054;-73
2022/06/11 04:21:43;;;;;;;7.40;3.70;;;33.60;92.20;;;;;;4139662;28;20074;-75
2022/06/11 04:23:51;;;;;;;8.82;3.53;;;33.60;92.50;;;;;;4146077;28;20100;-73
2022/06/11 04:25:59;;;;;;;8.57;3.50;;;33.60;91.80;;;;;;4150475;28;20080;-73
2022/06/11 04:28:04;;;;;;;8.55;3.40;;;33.70;91.50;;;;;;4146883;28;20173;-73
2022/06/11 04:30:12;;;;;;;6.30;3.08;;;33.70;91.00;;;;;;4159249;28;20366;-72
2022/06/11 04:32:21;;;;;;;9.15;3.50;;;33.50;90.50;;;;;;4158075;28;20455;-73
2022/06/11 04:34:27;;;;;;;9.48;3.70;;;33.70;91.00;;;;;;4142823;28;20046;-72
2022/06/11 04:36:34;;;;;;;6.70;3.30;;;33.80;91.10;;;;;;4158947;28;20053;-73
2022/06/11 04:38:39;;;;;;;8.65;3.70;;;33.90;90.90;;;;;;4127763;28;20386;-74
2022/06/11 04:40:44;;;;;;;6.57;3.20;;;33.70;90.40;;;;;;4160969;28;20056;-73
2022/06/11 04:42:49;;;;;;;8.00;4.18;;;33.80;91.00;;;;;;4128851;28;20081;-73
2022/06/11 04:44:54;;;;;;;7.43;3.38;;;33.90;90.60;;;;;;4143716;28;20048;-75
2022/06/11 04:46:58;;;;;;;8.27;3.60;;;33.80;90.40;;;;;;4144063;28;20042;-74
2022/06/11 04:49:05;;;;;;;11.18;3.80;;;33.80;91.10;;;;;;4144235;28;20038;-75
2022/06/11 04:51:10;;;;;;;8.55;4.13;;;33.90;90.40;;;;;;4145621;28;20473;-73
2022/06/11 04:53:16;;;;;;;6.45;4.50;;;33.80;90.50;;;;;;4144723;28;20080;-73
2022/06/11 04:55:20;;;;;;;6.20;3.63;;;34.00;91.20;;;;;;4162388;28;20099;-74
2022/06/11 04:57:25;;;;;;;7.88;3.90;;;33.90;90.30;;;;;;4144230;28;20406;-75
2022/06/11 04:59:32;;;;;;;7.45;3.80;;;34.00;90.30;;;;;;4161195;28;20038;-81
2022/06/11 05:01:42;;;;;;;7.50;3.80;;;34.20;90.40;;;;;;4144429;28;20060;-75
2022/06/11 05:03:49;;;;;;;6.75;3.45;;;34.30;89.50;;;;;;4161803;28;20057;-74
2022/06/11 05:05:54;;;;;;;6.05;3.40;;;34.40;90.00;;;;;;4144320;28;20050;-73
2022/06/11 05:08:02;;;;;;;9.35;4.32;;;34.40;89.10;;;;;;4113819;28;20039;-75
2022/06/11 05:10:16;;;;;;;10.82;3.60;;;34.40;90.10;;;;;;4133086;28;20481;-72
2022/06/11 05:12:25;;;;;;;8.68;3.63;;;34.50;89.60;;;;;;4160129;28;20099;-71
2022/06/11 05:14:40;;;;;;;9.55;3.92;;;34.60;89.10;;;;;;4176718;28;20660;-74
2022/06/11 05:17:05;;;;;;;7.07;3.55;;;34.80;89.30;;;;;;4121635;28;20054;-73
2022/06/11 05:19:13;;;;;;;8.82;3.47;;;34.80;88.70;;;;;;4146190;28;20053;-73
2022/06/11 05:21:28;;;;;;;6.55;3.92;;;34.70;89.60;;;;;;4155211;28;20053;-73
2022/06/11 05:23:39;;;;;;;7.57;3.63;;;34.70;89.80;;;;;;4144760;28;20046;-72
2022/06/11 05:25:56;;;;;;;8.38;3.78;;;35.00;89.80;;;;;;4145234;28;20057;-73
2022/06/11 05:28:03;;;;;;;8.90;3.38;;;35.00;88.70;;;;;;4160294;28;20053;-72
2022/06/11 05:30:28;;;;;;;8.52;3.38;;;35.10;89.20;;;;;;4159451;28;20053;-72
2022/06/11 05:32:35;;;;;;;8.18;3.63;;;34.90;87.10;;;;;;4143819;28;20057;-73
2022/06/11 05:34:42;;;;;;;7.80;3.47;;;35.00;87.90;;;;;;4160660;28;20073;-73
2022/06/11 05:36:48;;;;;;;5.57;3.30;;;35.20;89.00;;;;;;4147655;28;20092;-73
2022/06/11 05:38:59;;;;;;;7.88;3.65;;;35.30;88.10;;;;;;4144843;28;20045;-73
2022/06/11 05:41:04;;;;;;;8.38;3.65;;;35.10;86.30;;;;;;4146217;28;20831;-73
2022/06/11 05:43:12;;;;;;;7.30;3.65;;;35.00;87.00;;;;;;4130308;28;20783;-73
2022/06/11 05:45:26;;;;;;;6.53;3.80;;;35.20;86.80;;;;;;4129926;28;20807;-73
2022/06/11 05:47:34;;;;;;;8.75;3.40;;;35.30;88.20;;;;;;4155903;28;20075;-72
2022/06/11 05:49:45;;;;;;;8.63;3.50;;;35.10;85.30;;;;;;4145658;28;20104;-72
2022/06/11 05:51:55;;;;;;;6.00;3.00;;;34.80;86.90;;;;;;4131241;28;20046;-72
2022/06/11 05:54:09;;;;;;;5.85;3.13;;;34.90;87.30;;;;;;4145648;28;20038;-73
2022/06/11 05:56:28;;;;;;;10.88;3.58;;;34.90;87.00;;;;;;4125092;28;20046;-73
2022/06/11 05:58:39;;;;;;;5.80;3.05;;;35.10;86.70;;;;;;4130272;28;20574;-73
2022/06/11 06:00:59;;;;;;;8.35;2.83;;;35.00;87.10;;;;;;4130564;28;20062;-72
2022/06/11 06:03:09;;;;;;;6.72;3.20;;;34.90;87.80;;;;;;4130456;28;20038;-73
2022/06/11 06:05:20;;;;;;;6.55;3.47;;;35.20;87.70;;;;;;4166815;28;20431;-73
2022/06/11 06:07:32;;;;;;;6.05;2.80;;;35.20;85.20;;;;;;4148722;28;20066;-73
2022/06/11 06:09:38;;;;;;;6.38;2.88;;;35.30;86.10;;;;;;4164834;28;20037;-73
2022/06/11 06:11:45;;;;;;;5.18;3.33;;;35.60;86.40;;;;;;4147842;28;20042;-73
2022/06/11 06:13:52;;;;;;;7.97;3.28;;;35.60;85.10;;;;;;4163138;28;20045;-73
2022/06/11 06:16:02;;;;;;;;;;;35.60;85.60;;;;;;4163509;28;20527;-74
2022/06/11 06:18:08;;;;;;;7.75;2.63;;;35.40;84.70;;;;;;4146421;28;19925;-73
2022/06/11 06:20:19;;;;;;;5.45;3.00;;;35.40;85.70;;;;;;4143948;28;20548;-73
2022/06/11 06:22:28;;;;;;;4.88;2.90;;;35.60;86.00;;;;;;4117757;28;20059;-73
2022/06/11 06:24:34;;;;;;;7.60;3.10;;;35.80;84.30;;;;;;4164493;28;20057;-73
2022/06/11 06:26:41;;;;;;;5.70;3.28;;;35.70;84.40;;;;;;4132608;28;20500;-73
2022/06/11 06:28:47;;;;;;;6.15;3.05;;;35.70;84.70;;;;;;4165994;28;20058;-73
2022/06/11 06:30:52;;;;;;;4.20;2.80;;;35.50;85.30;;;;;;4146990;28;20125;-73
2022/06/11 06:33:00;;;;;;;12.45;3.58;;;35.30;85.40;;;;;;4162800;28;20050;-73
2022/06/11 06:35:09;;;;;;;6.57;3.00;;;35.40;85.10;;;;;;4131970;28;20105;-73
2022/06/11 06:37:14;;;;;;;7.35;3.10;;;35.60;85.10;;;;;;4146985;28;20050;-72
2022/06/11 06:39:20;;;;;;;9.75;4.25;;;35.70;85.00;;;;;;4146893;28;20045;-73
2022/06/11 06:41:28;;;;;;;5.55;2.88;;;35.20;86.00;;;;;;4150692;28;20065;-73
2022/06/11 06:43:36;;;;;;;8.15;3.10;;;35.00;86.20;;;;;;4164637;28;20392;-72
2022/06/11 06:45:45;;;;;;;9.00;3.03;;;34.80;86.50;;;;;;4146989;28;20050;-72
2022/06/11 06:47:52;;;;;;;9.18;3.22;;;34.60;86.90;;;;;;4163583;28;20480;-73
2022/06/11 06:50:01;;;;;;;8.23;3.05;;;34.60;87.70;;;;;;4150610;28;20464;-72
2022/06/11 06:52:11;;;;;;;6.97;3.08;;;34.80;87.20;;;;;;4147097;28;20069;-73
2022/06/11 06:54:20;;;;;;;7.53;3.10;;;34.80;86.10;;;;;;4162652;28;20306;-72
2022/06/11 06:56:40;;;;;;;6.75;3.03;;;34.70;86.60;;;;;;4152388;28;20437;-72
2022/06/11 06:58:48;;;;;;;6.82;2.70;;;34.70;86.50;;;;;;4163814;28;20095;-72
2022/06/11 07:00:55;;;;;;;8.10;2.95;;;34.70;86.80;;;;;;4167201;28;20048;-71
2022/06/11 07:03:04;;;;;;;5.50;2.88;;;34.80;85.80;;;;;;4162311;28;20034;-72
2022/06/11 07:05:14;;;;;;;4.60;2.85;;;35.10;86.10;;;;;;4148993;28;20132;-72
2022/06/11 07:07:25;;;;;;;8.45;3.00;;;35.10;86.30;;;;;;4131315;28;20050;-72
2022/06/11 07:09:33;;;;;;;6.50;3.10;;;35.10;86.60;;;;;;4124959;28;20053;-72
2022/06/11 07:11:42;;;;;;;8.88;3.30;;;34.90;85.10;;;;;;4163653;28;20034;-72
2022/06/11 07:13:48;;;;;;;6.97;3.28;;;34.90;85.50;;;;;;4162490;28;20049;-72
2022/06/11 07:15:55;;;;;;;7.88;3.28;;;34.60;86.20;;;;;;4163955;28;20064;-72
2022/06/11 07:18:13;;;;;;;10.70;3.85;;;34.70;86.60;;;;;;4148170;28;20042;-71
2022/06/11 07:20:20;;;;;;;;;;;34.70;86.70;;;;;;4164957;28;20052;-72
2022/06/11 07:22:34;;;;;;;8.80;2.95;;;34.80;86.30;;;;;;4136399;28;20458;-72
2022/06/11 07:24:41;;;;;;;10.13;2.97;;;34.90;86.10;;;;;;4137932;28;20046;-73
2022/06/11 07:26:52;;;;;;;8.25;3.28;;;35.10;86.60;;;;;;4146741;28;20052;-72
2022/06/11 07:29:12;;;;;;;6.25;3.00;;;35.20;85.90;;;;;;4150047;28;20438;-72
2022/06/11 07:31:20;;;;;;;7.05;3.05;;;35.20;85.80;;;;;;4162333;28;20052;-72
2022/06/11 07:33:32;;;;;;;5.57;2.95;;;35.00;84.20;;;;;;4162353;28;20045;-71
2022/06/11 07:35:42;;;;;;;5.93;3.47;;;34.80;84.70;;;;;;4146421;28;20145;-71
2022/06/11 07:38:05;;;;;;;4.85;2.90;;;34.80;84.40;;;;;;4148484;28;20065;-71
2022/06/11 07:40:11;;;;;;;8.20;3.30;;;34.80;85.20;;;;;;4161275;28;20049;-71
2022/06/11 07:42:20;;;;;;;6.50;2.90;;;34.80;85.50;;;;;;4162476;28;20510;-71
2022/06/11 07:44:31;;;;;;;6.20;2.80;;;34.90;85.70;;;;;;4149583;28;20058;-72
2022/06/11 07:46:49;;;;;;;6.45;2.90;;;34.80;85.80;;;;;;4133235;28;20097;-71
2022/06/11 07:49:09;;;;;;;8.75;2.97;;;34.90;85.40;;;;;;4139310;28;20827;-70
2022/06/11 07:51:32;;;;;;;4.80;2.70;;;34.80;86.10;;;;;;4133886;28;20078;-71
2022/06/11 07:53:54;;;;;;;8.02;3.63;;;35.10;86.70;;;;;;4147955;28;20046;-72
2022/06/11 07:56:01;;;;;;;5.80;2.75;;;34.90;85.20;;;;;;4132238;28;20039;-71
2022/06/11 07:58:08;;;;;;;4.63;2.70;;;35.00;85.30;;;;;;4143803;28;20080;-71
2022/06/11 08:00:21;;;;;;;7.88;3.53;;;35.00;85.40;;;;;;4135604;28;20157;-72
2022/06/11 08:02:43;;;;;;;9.57;3.53;;;34.90;86.40;;;;;;4133228;28;21794;-71
2022/06/11 08:05:04;;;;;;;7.65;3.10;;;35.00;87.00;;;;;;4143378;28;20073;-71
2022/06/11 08:07:29;;;;;;;8.30;3.22;;;34.80;85.60;;;;;;4126157;28;20054;-71
2022/06/11 08:09:57;;;;;;;7.32;3.03;;;34.90;85.80;;;;;;4132783;28;20515;-71
2022/06/11 08:12:20;;;;;;;9.18;3.45;;;34.60;86.60;;;;;;4136290;28;20053;-70
2022/06/11 08:14:30;;;;;;;7.80;3.78;;;34.70;87.00;;;;;;4130089;28;20042;-71
2022/06/11 08:16:38;;;;;;;6.53;3.88;;;34.70;87.70;;;;;;4155312;28;20061;-71
2022/06/11 08:18:49;;;;;;;7.75;3.80;;;34.50;87.20;;;;;;4147568;28;20133;-71
2022/06/11 08:20:58;;;;;;;9.23;4.47;;;34.40;88.20;;;;;;4144207;28;20393;-70
2022/06/11 08:23:06;;;;;;;11.77;4.78;;;34.30;87.80;;;;;;4130790;28;20047;-70
2022/06/11 08:25:34;;;;;;;7.32;3.63;;;34.30;88.20;;;;;;4144223;28;20085;-71
2022/06/11 08:27:47;;;;;;;11.88;3.60;;;34.60;87.40;;;;;;4145560;28;20045;-70
2022/06/11 08:30:00;;;;;;;10.95;3.70;;;34.60;87.70;;;;;;4114092;28;20141;-71
2022/06/11 08:32:19;;;;;;;7.75;3.38;;;34.50;87.80;;;;;;4136644;28;20056;-70
2022/06/11 08:34:34;;;;;;;7.50;3.95;;;34.50;87.50;;;;;;4113838;28;20453;-70
2022/06/11 08:36:53;;;;;;;11.35;3.78;;;34.50;86.70;;;;;;4121145;28;20065;-71
2022/06/11 08:39:01;;;;;;;10.20;4.35;;;34.50;88.00;;;;;;4130392;28;20035;-71
2022/06/11 08:41:21;;;;;;;7.15;3.67;;;34.40;87.90;;;;;;4147306;28;20401;-71
2022/06/11 08:43:39;;;;;;;8.35;5.28;;;34.40;87.60;;;;;;4146447;28;20076;-70
2022/06/11 08:45:48;;;;;;;10.73;5.90;;;34.50;88.30;;;;;;4113312;28;20054;-71
2022/06/11 08:48:02;;;;;;;6.40;4.07;;;34.60;88.00;;;;;;4123950;28;20042;-70
2022/06/11 08:50:15;;;;;;;7.57;3.60;;;34.60;86.80;;;;;;4114294;28;20055;-71
2022/06/11 08:52:28;;;;;;;10.50;6.15;;;34.50;85.60;;;;;;4138338;28;20508;-71
2022/06/11 08:54:51;;;;;;;6.97;4.05;;;34.60;86.20;;;;;;4126348;28;20079;-70
2022/06/11 08:57:33;;;;;;;7.25;4.18;;;34.60;86.90;;;;;;4150105;28;20055;-71
2022/06/11 08:59:55;;;;;;;8.98;4.80;;;34.70;86.50;;;;;;4159184;28;20041;-71
2022/06/11 09:02:23;;;;;;;8.90;4.40;;;34.70;86.90;;;;;;4161237;28;20404;-71
2022/06/11 09:04:38;;;;;;;7.25;4.15;;;34.80;86.50;;;;;;4143716;28;20048;-70
2022/06/11 09:07:12;;;;;;;10.57;4.18;;;34.80;87.10;;;;;;4116272;28;20051;-70
2022/06/11 09:09:34;;;;;;;;;;;34.70;86.40;;;;;;4130566;28;20130;-71
2022/06/11 09:12:02;;;;;;;8.55;4.05;;;34.70;86.60;;;;;;4159763;28;19931;-71
2022/06/11 09:14:43;;;;;;;7.82;3.60;;;34.60;85.40;;;;;;4129436;28;20125;-71
2022/06/11 09:17:07;;;;;;;7.43;2.90;;;34.70;85.40;;;;;;4160036;28;20507;-72
2022/06/11 09:19:31;;;;;;;9.15;3.13;;;34.90;84.80;;;;;;4151249;28;20546;-71
2022/06/11 09:21:49;;;;;;;5.75;2.97;;;34.90;84.90;;;;;;4144693;28;20492;-72
2022/06/11 09:24:21;;;;;;;7.60;3.05;;;34.80;84.70;;;;;;4136828;28;20167;-72
2022/06/11 09:26:31;;;;;;;6.47;3.28;;;34.70;84.10;;;;;;4112547;28;20051;-70
2022/06/11 09:28:58;;;;;;;9.82;4.05;;;34.50;84.80;;;;;;4146335;28;20064;-72
2022/06/11 09:31:14;;;;;;;9.18;4.63;;;34.60;85.50;;;;;;4143113;28;20054;-72
2022/06/11 09:33:26;;;;;;;11.48;5.63;;;34.50;84.80;;;;;;4122354;28;20093;-72
2022/06/11 09:35:39;;;;;;;9.50;4.57;;;34.50;85.60;;;;;;4130380;28;20042;-71
2022/06/11 09:38:06;;;;;;;11.43;4.10;;;34.60;85.70;;;;;;4145243;28;20089;-71
2022/06/11 09:40:35;;;;;;;6.18;3.83;;;34.70;85.70;;;;;;4143382;28;20056;-72
2022/06/11 09:42:53;;;;;;;9.57;4.07;;;34.70;85.70;;;;;;4113867;28;20049;-72
2022/06/11 09:45:06;;;;;;;7.90;3.67;;;34.70;85.50;;;;;;4128325;28;20054;-71
2022/06/11 09:47:36;;;;;;;10.98;3.80;;;34.70;85.30;;;;;;4167936;28;20152;-71
2022/06/11 09:50:17;;;;;;;10.45;4.78;;;34.60;85.50;;;;;;4147889;28;20474;-71
2022/06/11 09:52:44;;;;;;;15.50;7.85;;;34.60;86.30;;;;;;4123991;28;20400;-72
2022/06/11 09:54:50;;;;;;;11.68;6.70;;;34.60;88.00;;;;;;4144771;28;20049;-72
2022/06/11 09:57:06;;;;;;;22.48;10.18;;;34.50;87.90;;;;;;4168219;28;20132;-71
2022/06/11 09:59:33;;;;;;;18.88;10.57;;;34.50;88.70;;;;;;4146724;28;20089;-73
2022/06/11 10:01:59;;;;;;;17.00;9.85;;;34.50;89.10;;;;;;4159640;28;20099;-71
2022/06/11 10:04:24;;;;;;;16.95;8.23;;;34.50;89.60;;;;;;4162778;28;20045;-71
2022/06/11 10:06:42;;;;;;;14.38;8.27;;;34.50;89.90;;;;;;4158914;28;20065;-72
2022/06/11 10:09:03;;;;;;;17.52;6.40;;;34.50;90.00;;;;;;4160328;28;20088;-72
2022/06/11 10:11:23;;;;;;;11.40;5.00;;;34.50;90.20;;;;;;4144271;28;20420;-73
2022/06/11 10:13:52;;;;;;;11.73;5.40;;;34.40;90.20;;;;;;4143710;28;20057;-72
2022/06/11 10:16:27;;;;;;;12.43;5.95;;;34.40;90.30;;;;;;4144634;28;20101;-74
2022/06/11 10:18:36;;;;;;;14.02;7.03;;;34.30;90.40;;;;;;4136158;28;20054;-74
2022/06/11 10:20:51;;;;;;;10.43;6.63;;;34.30;90.50;;;;;;4159954;28;20128;-73
2022/06/11 10:23:03;;;;;;;11.50;6.40;;;34.30;90.40;;;;;;4141621;28;20042;-72
2022/06/11 10:25:31;;;;;;;11.20;6.20;;;34.30;90.40;;;;;;4127541;28;20042;-73
2022/06/11 10:28:01;;;;;;;8.55;4.93;;;34.30;90.50;;;;;;4146112;28;20120;-73
2022/06/11 10:30:29;;;;;;;14.82;5.65;;;34.20;90.50;;;;;;4147140;28;20045;-71
2022/06/11 10:32:41;;;;;;;13.05;5.68;;;34.20;90.60;;;;;;4165988;28;20065;-73
2022/06/11 10:34:51;;;;;;;14.20;5.63;;;34.10;90.80;;;;;;4151790;28;20038;-74
2022/06/11 10:37:07;;;;;;;12.60;5.07;;;34.10;91.00;;;;;;4125325;28;20045;-72
2022/06/11 10:39:21;;;;;;;12.32;5.85;;;34.10;91.00;;;;;;4164762;28;20041;-73
2022/06/11 10:41:41;;;;;;;10.38;5.38;;;34.00;91.10;;;;;;4169547;28;20040;-73
2022/06/11 10:44:04;;;;;;;8.45;4.93;;;33.90;91.10;;;;;;4159438;28;20069;-71
2022/06/11 10:46:14;;;;;;;13.98;5.07;;;33.90;91.50;;;;;;4147022;28;20517;-72
2022/06/11 10:48:23;;;;;;;8.85;4.60;;;33.80;91.40;;;;;;4145306;28;20046;-71
2022/06/11 10:50:48;;;;;;;10.60;4.30;;;33.80;91.40;;;;;;4135023;28;20041;-71
2022/06/11 10:53:04;;;;;;;13.50;4.35;;;33.80;91.50;;;;;;4136114;28;20567;-71
2022/06/11 10:55:46;;;;;;;9.27;4.38;;;33.70;91.70;;;;;;4159916;28;20136;-70
2022/06/11 10:57:52;;;;;;;17.00;5.32;;;33.70;91.80;;;;;;4153204;28;20050;-71
2022/06/11 11:00:14;;;;;;;14.77;6.60;;;33.70;92.00;;;;;;4153418;28;20045;-71
2022/06/11 11:02:40;;;;;;;13.95;7.43;;;33.50;92.30;;;;;;4154818;28;20044;-70
2022/06/11 11:05:00;;;;;;;12.45;6.70;;;33.40;92.20;;;;;;4154621;28;20409;-71
2022/06/11 11:07:15;;;;;;;12.27;7.57;;;33.40;92.50;;;;;;4160471;28;20072;-71
2022/06/11 11:09:26;;;;;;;18.30;7.20;;;33.40;92.60;;;;;;4132848;28;20050;-69
2022/06/11 11:11:37;;;;;;;14.35;6.95;;;33.30;92.60;;;;;;4163154;28;20053;-69
2022/06/11 11:14:20;;;;;;;11.68;5.15;;;33.40;92.70;;;;;;4149510;28;20088;-70
2022/06/11 11:16:30;;;;;;;8.45;5.00;;;33.30;92.50;;;;;;4120453;28;20160;-69
2022/06/11 11:18:46;;;;;;;9.93;5.35;;;33.20;92.90;;;;;;4155974;28;20049;-70
2022/06/11 11:21:02;;;;;;;8.07;4.75;;;33.20;93.10;;;;;;4128199;28;20103;-69
2022/06/11 11:23:23;;;;;;;10.80;4.80;;;33.10;92.90;;;;;;4140006;28;20054;-69
2022/06/11 11:25:38;;;;;;;9.13;4.60;;;33.10;92.90;;;;;;4149606;28;20051;-69
2022/06/11 11:27:47;;;;;;;7.25;4.30;;;33.00;93.20;;;;;;4155749;28;20053;-69
2022/06/11 11:30:10;;;;;;;9.50;4.88;;;33.00;93.30;;;;;;4124908;28;20065;-70
2022/06/11 11:32:35;;;;;;;9.73;5.00;;;33.00;93.70;;;;;;4141561;28;20125;-70
2022/06/11 11:34:47;;;;;;;8.85;6.07;;;33.00;93.60;;;;;;4154548;28;20050;-69
2022/06/11 11:37:13;;;;;;;11.10;6.70;;;32.80;93.80;;;;;;4147304;28;20072;-68
2022/06/11 11:39:27;;;;;;;12.75;6.88;;;32.80;94.10;;;;;;4128024;28;20153;-68
2022/06/11 11:41:37;;;;;;;;;;;32.80;94.10;;;;;;4163368;28;20056;-68
2022/06/11 11:43:42;;;;;;;9.25;5.85;;;32.80;94.30;;;;;;4161165;28;19932;-67
2022/06/11 11:45:57;;;;;;;13.20;5.75;;;32.80;94.20;;;;;;4162857;28;20091;-69
2022/06/11 11:48:05;;;;;;;14.85;6.47;;;32.70;94.40;;;;;;4145018;28;20053;-68
2022/06/11 11:50:28;;;;;;;13.50;6.82;;;32.70;94.50;;;;;;4138850;28;20053;-68
2022/06/11 11:52:52;;;;;;;11.27;5.95;;;32.70;94.70;;;;;;4140382;28;20113;-68
2022/06/11 11:55:14;;;;;;;9.35;5.47;;;32.70;94.70;;;;;;4146381;28;20049;-69
2022/06/11 11:57:37;;;;;;;9.82;5.85;;;32.60;94.70;;;;;;4139646;28;20041;-68
2022/06/11 11:59:57;;;;;;;13.27;5.90;;;32.60;94.80;;;;;;4139803;28;20116;-68
2022/06/11 12:02:24;;;;;;;18.85;6.63;;;32.60;94.90;;;;;;4157814;28;20446;-70
2022/06/11 12:04:36;;;;;;;13.90;5.88;;;32.60;95.10;;;;;;4153876;28;20419;-68
2022/06/11 12:06:46;;;;;;;15.07;6.22;;;32.60;95.20;;;;;;4108481;28;20051;-69
2022/06/11 12:08:58;;;;;;;9.77;6.30;;;32.60;95.20;;;;;;4117235;28;20058;-69
2022/06/11 12:11:06;;;;;;;11.25;6.80;;;32.60;95.30;;;;;;4153580;28;20077;-69
2022/06/11 12:13:45;;;;;;;12.57;5.70;;;32.50;95.30;;;;;;4146567;28;20489;-69